Terminal Aerodrome Forecast
Issued by NWS Raleigh/Durham, NC

Home | Current Version | Previous Version | Text Only | Print | Product List | Glossary On
Versions: 1 2 3 4 5 6 7 8 9 10 11 12 13 14 15 16 17 18 19 20 21 22 23 24 25 26 27 28 29 30 31 32 33 34 35 36 37 38 39 40
000
FTUS42 KRAH 041132
TAFFAY
TAF
KFAY 041132Z 0412/0512 VRB04KT P6SM FEW250
      TEMPO 0412/0413 5SM BR
     FM041500 36005KT P6SM FEW040 SCT250
     FM041800 03007KT P6SM BKN050 PROB30 0421/0503 VRB15G25KT 2SM
      TSRA BKN025CB
     FM050300 03004KT P6SM FEW050 SCT100 BKN250
      TEMPO 0509/0512 5SM BR SCT005 BKN012=

USA.gov is the U.S. government's official web portal to all federal, state and local government web resources and services.